createdAt,value
2018-09-06T00:04:38.786Z,19.93
2018-09-06T00:09:41.002Z,19.89
2018-09-06T00:14:43.186Z,19.90
2018-09-06T00:19:47.601Z,19.87
2018-09-06T00:24:51.319Z,19.86
2018-09-06T00:29:53.450Z,19.81
2018-09-06T00:34:55.627Z,19.79
2018-09-06T00:39:57.769Z,19.79
2018-09-06T00:44:59.925Z,19.80
2018-09-06T00:50:02.610Z,19.77
2018-09-06T00:55:04.943Z,19.76
2018-09-06T01:00:07.093Z,19.74
2018-09-06T01:05:09.213Z,19.70
2018-09-06T01:10:11.349Z,19.68
2018-09-06T01:15:13.494Z,19.66
2018-09-06T01:20:15.632Z,19.61
2018-09-06T01:25:17.767Z,19.55
2018-09-06T01:30:19.882Z,19.57
2018-09-06T01:35:22.043Z,19.55
2018-09-06T01:40:24.191Z,19.50
2018-09-06T01:45:26.702Z,19.48
2018-09-06T01:50:28.822Z,19.46
2018-09-06T01:55:30.959Z,19.48
2018-09-06T02:00:33.088Z,19.45
2018-09-06T02:05:35.475Z,19.37
2018-09-06T02:10:37.664Z,19.34
2018-09-06T02:15:39.819Z,19.33
2018-09-06T02:20:41.958Z,19.31
2018-09-06T02:25:44.116Z,19.23
2018-09-06T02:30:46.238Z,19.23
2018-09-06T02:35:48.348Z,19.16
2018-09-06T02:40:50.477Z,19.14
2018-09-06T02:45:52.673Z,19.10
2018-09-06T02:51:00.603Z,19.10
2018-09-06T02:56:02.761Z,19.05
2018-09-06T03:01:05.070Z,19.03
2018-09-06T03:06:07.675Z,18.96
2018-09-06T03:11:18.945Z,18.98
2018-09-06T03:16:21.129Z,18.98
2018-09-06T03:21:23.265Z,18.95
2018-09-06T03:31:40.581Z,18.89
2018-09-06T03:36:42.695Z,18.88
2018-09-06T03:41:44.851Z,18.89
2018-09-06T03:46:47.030Z,18.86
2018-09-06T03:51:49.236Z,18.79
2018-09-06T03:56:51.371Z,18.82
2018-09-06T04:01:53.479Z,18.82
2018-09-06T04:06:55.807Z,18.78
2018-09-06T04:11:57.972Z,18.76
2018-09-06T04:17:00.450Z,18.71
2018-09-06T04:22:02.581Z,18.72
2018-09-06T04:27:04.739Z,18.70
2018-09-06T04:32:06.883Z,18.73
2018-09-06T04:37:09.007Z,18.74
2018-09-06T04:42:11.116Z,18.74
2018-09-06T04:47:13.245Z,18.72
2018-09-06T04:52:15.354Z,18.70
2018-09-06T04:57:17.505Z,18.71
2018-09-06T05:02:19.691Z,18.70
2018-09-06T05:07:21.822Z,18.74
2018-09-06T05:12:23.940Z,18.75
2018-09-06T05:17:26.093Z,18.80
2018-09-06T05:22:28.201Z,18.81
2018-09-06T05:27:30.289Z,18.86
2018-09-06T05:32:32.387Z,18.98
2018-09-06T05:37:34.535Z,19.47
2018-09-06T05:42:36.638Z,19.85
2018-09-06T05:47:38.812Z,20.07
2018-09-06T05:52:40.931Z,20.07
2018-09-06T05:57:43.079Z,20.29
2018-09-06T06:02:45.246Z,20.38
2018-09-06T06:07:58.821Z,20.43
2018-09-06T06:13:00.950Z,20.59
2018-09-06T06:18:03.895Z,20.65
2018-09-06T06:23:06.071Z,20.76
2018-09-06T06:28:08.414Z,20.84
2018-09-06T06:33:10.649Z,20.85
2018-09-06T06:38:12.859Z,20.88
2018-09-06T06:43:14.981Z,20.56
2018-09-06T06:48:17.154Z,20.38
2018-09-06T06:53:19.295Z,20.24
2018-09-06T06:58:21.390Z,20.19
2018-09-06T07:03:23.817Z,20.17
2018-09-06T07:08:26.571Z,20.16
2018-09-06T07:13:29.005Z,20.23
2018-09-06T07:18:31.858Z,20.32
2018-09-06T07:23:33.986Z,20.31
2018-09-06T07:28:36.134Z,20.38
2018-09-06T07:33:38.262Z,20.53
2018-09-06T07:38:40.387Z,20.63
2018-09-06T07:43:42.512Z,20.70
2018-09-06T07:48:44.653Z,20.66
2018-09-06T07:53:46.784Z,20.71
2018-09-06T07:58:48.917Z,20.80
2018-09-06T08:03:51.272Z,20.92
2018-09-06T08:08:53.435Z,20.94
2018-09-06T08:13:55.586Z,20.94
2018-09-06T08:18:57.849Z,20.99
2018-09-06T08:24:00.095Z,21.13
2018-09-06T08:29:02.224Z,21.09
2018-09-06T08:34:04.339Z,21.04
2018-09-06T08:39:08.159Z,21.19
2018-09-06T08:44:10.354Z,21.22
2018-09-06T08:49:12.486Z,21.32
2018-09-06T08:54:14.619Z,21.41
2018-09-06T08:59:21.054Z,21.52
2018-09-06T09:04:23.951Z,21.72
2018-09-06T09:09:26.111Z,21.87
2018-09-06T09:14:28.275Z,21.93
2018-09-06T09:19:30.476Z,21.91
2018-09-06T09:24:32.660Z,22.07
2018-09-06T09:29:34.783Z,22.09
2018-09-06T09:34:36.926Z,22.13
2018-09-06T09:39:39.110Z,22.17
2018-09-06T09:44:41.306Z,22.31
2018-09-06T09:49:43.959Z,22.41
2018-09-06T09:54:46.095Z,22.48
2018-09-06T09:59:48.268Z,22.59
2018-09-06T10:04:54.353Z,22.69
2018-09-06T10:09:56.508Z,22.68
2018-09-06T10:14:58.690Z,22.60
2018-09-06T10:20:00.915Z,22.76
2018-09-06T10:25:03.086Z,22.91
2018-09-06T10:30:05.306Z,23.05
2018-09-06T10:35:07.475Z,23.21
2018-09-06T10:40:09.692Z,23.38
2018-09-06T10:45:11.937Z,23.58
2018-09-06T10:50:14.115Z,23.86
2018-09-06T10:55:16.258Z,24.13
2018-09-06T11:00:18.909Z,24.28
2018-09-06T11:05:21.180Z,24.51
2018-09-06T11:10:23.371Z,24.80
2018-09-06T11:15:25.533Z,25.08
2018-09-06T11:20:27.732Z,25.31
2018-09-06T11:25:29.920Z,25.60
2018-09-06T11:30:32.061Z,25.95
2018-09-06T11:35:34.327Z,26.14
2018-09-06T11:40:36.521Z,26.29
2018-09-06T11:45:38.675Z,26.52
2018-09-06T11:50:40.933Z,26.46
2018-09-06T11:55:43.099Z,26.90
2018-09-06T12:00:45.514Z,27.29
2018-09-06T12:05:47.702Z,27.11
2018-09-06T12:10:49.858Z,27.11
2018-09-06T12:15:52.010Z,27.44
2018-09-06T12:20:54.244Z,27.79
2018-09-06T12:25:56.402Z,27.73
2018-09-06T12:30:58.563Z,27.91
2018-09-06T12:36:00.884Z,28.06
2018-09-06T12:41:03.071Z,28.27
2018-09-06T12:46:05.450Z,28.66
2018-09-06T12:51:07.619Z,28.79
2018-09-06T12:56:09.805Z,29.00
2018-09-06T13:01:12.195Z,28.49
2018-09-06T13:06:14.358Z,28.48
2018-09-06T13:11:16.574Z,28.47
2018-09-06T13:16:18.761Z,28.68
2018-09-06T13:21:20.952Z,28.89
2018-09-06T13:26:23.157Z,28.92
2018-09-06T13:31:25.299Z,29.01
2018-09-06T13:36:27.477Z,28.99
2018-09-06T13:41:29.909Z,28.58
2018-09-06T13:46:32.070Z,27.94
2018-09-06T13:51:34.249Z,27.71
2018-09-06T13:56:36.374Z,27.94
2018-09-06T14:01:38.502Z,27.99
2018-09-06T14:06:40.637Z,27.90
2018-09-06T14:11:42.778Z,28.31
2018-09-06T14:16:44.995Z,28.99
2018-09-06T14:21:47.216Z,29.06
2018-09-06T14:26:49.490Z,28.92
2018-09-06T14:31:51.674Z,28.45
2018-09-06T14:36:53.860Z,28.47
2018-09-06T14:41:56.039Z,27.96
2018-09-06T14:46:58.184Z,27.37
2018-09-06T14:52:00.324Z,27.27
2018-09-06T14:57:02.496Z,27.46
2018-09-06T15:02:04.786Z,27.79
2018-09-06T15:07:06.955Z,27.86
2018-09-06T15:12:09.140Z,27.79
2018-09-06T15:17:11.330Z,28.01
2018-09-06T15:22:13.595Z,27.87
2018-09-06T15:27:15.733Z,27.68
2018-09-06T15:32:17.900Z,27.58
2018-09-06T15:37:20.059Z,27.33
2018-09-06T15:42:22.222Z,26.95
2018-09-06T15:47:24.374Z,26.51
2018-09-06T15:52:26.760Z,26.31
2018-09-06T15:57:28.910Z,26.06
2018-09-06T16:02:31.058Z,25.92
2018-09-06T16:07:33.256Z,25.79
2018-09-06T16:12:35.453Z,25.76
2018-09-06T16:17:37.652Z,25.51
2018-09-06T16:22:39.870Z,25.26
2018-09-06T16:27:42.128Z,25.15
2018-09-06T16:32:44.272Z,25.04
2018-09-06T16:37:46.460Z,24.88
2018-09-06T16:42:48.670Z,24.70
2018-09-06T16:47:50.831Z,24.59
2018-09-06T16:52:53.022Z,24.44
2018-09-06T16:57:55.172Z,24.34
2018-09-06T17:02:57.340Z,24.30
2018-09-06T17:07:59.536Z,24.20
2018-09-06T17:13:01.760Z,24.06
2018-09-06T17:18:03.968Z,23.98
2018-09-06T17:23:06.210Z,23.92
2018-09-06T17:28:08.407Z,23.81
2018-09-06T17:33:10.608Z,23.73
2018-09-06T17:38:13.538Z,23.63
2018-09-06T17:43:15.728Z,23.49
2018-09-06T17:48:17.926Z,23.37
2018-09-06T17:53:20.193Z,23.23
2018-09-06T17:58:22.400Z,23.23
2018-09-06T18:03:24.698Z,23.16
2018-09-06T18:08:26.945Z,23.06
2018-09-06T18:13:29.146Z,22.96
2018-09-06T18:18:31.423Z,22.88
2018-09-06T18:23:33.695Z,22.79
2018-09-06T18:28:35.964Z,22.73
2018-09-06T18:33:38.206Z,22.68
2018-09-06T18:38:40.735Z,22.63
2018-09-06T18:43:43.149Z,22.59
2018-09-06T18:48:45.398Z,22.54
2018-09-06T18:53:47.711Z,22.44
2018-09-06T18:58:49.986Z,22.41
2018-09-06T19:03:52.288Z,22.35
2018-09-06T19:08:54.568Z,22.32
2018-09-06T19:13:56.831Z,22.21
2018-09-06T19:18:59.550Z,22.21
2018-09-06T19:24:01.872Z,22.20
2018-09-06T19:29:04.133Z,22.18
2018-09-06T19:34:06.597Z,22.17
2018-09-06T19:39:10.855Z,22.13
2018-09-06T19:44:13.492Z,22.08
2018-09-06T19:49:15.736Z,22.06
2018-09-06T19:54:18.071Z,22.08
2018-09-06T19:59:20.270Z,22.04
2018-09-06T20:04:22.461Z,22.04
2018-09-06T20:09:24.672Z,22.02
2018-09-06T20:14:26.826Z,21.92
2018-09-06T20:19:29.107Z,21.99
2018-09-06T20:24:31.364Z,21.90
2018-09-06T20:29:33.595Z,21.88
2018-09-06T20:34:35.760Z,21.86
2018-09-06T20:39:37.977Z,21.95
2018-09-06T20:44:40.508Z,22.16
2018-09-06T20:49:42.713Z,22.30
2018-09-06T20:54:44.875Z,22.31
2018-09-06T20:59:47.140Z,22.29
2018-09-06T21:04:49.537Z,22.30
2018-09-06T21:09:51.756Z,22.23
2018-09-06T21:14:53.930Z,22.18
2018-09-06T21:19:56.107Z,22.15
2018-09-06T21:24:58.320Z,22.12
2018-09-06T21:30:00.520Z,22.17
2018-09-06T21:35:02.872Z,22.05
2018-09-06T21:40:05.400Z,21.96
2018-09-06T21:45:08.039Z,21.89
2018-09-06T21:50:10.230Z,21.88
2018-09-06T21:55:19.359Z,21.79
2018-09-06T22:00:21.572Z,21.74
2018-09-06T22:05:23.742Z,21.68
2018-09-06T22:10:25.911Z,21.66
2018-09-06T22:15:28.098Z,21.59
2018-09-06T22:20:30.244Z,21.53
2018-09-06T22:25:32.477Z,21.54
2018-09-06T22:30:34.676Z,21.55
2018-09-06T22:35:36.801Z,21.51
2018-09-06T22:40:39.028Z,21.48
2018-09-06T22:45:41.159Z,21.47
2018-09-06T22:50:43.323Z,21.45
2018-09-06T22:55:45.462Z,21.46
2018-09-06T23:00:47.626Z,21.46
2018-09-06T23:05:49.766Z,21.44
2018-09-06T23:41:34.420Z,20.71
2018-09-06T23:46:36.579Z,20.34
2018-09-06T23:51:39.116Z,20.25
2018-09-06T23:56:41.249Z,20.17
